DW7901 Weather Reports


time (UTC)temp
C
wind
direction
speed
KPH
gust
KPH
rain 1hr
cm
rain 24hr
cm
rain mn
cm
humidity
%
barometer
mb
20200606180004 28 198 4.8 11.3 0.00 0.13 0.05 28 1005.7
20200606175004 30 188 4.8 12.9 0.00 0.13 0.05 25 1005.4
20200606174004 31 187 8.0 16.1 0.00 0.13 0.05 22 1005.5
20200606173003 32 181 6.4 11.3 0.00 0.13 0.05 22 1005.5
20200606172003 33 181 3.2 9.7 0.00 0.13 0.05 24 1005.5
20200606171003 32 191 3.2 6.4 0.00 0.13 0.05 23 1005.5
20200606170003 31 201 6.4 11.3 0.00 0.13 0.05 25 1005.6
20200606165003 30 187 6.4 12.9 0.00 0.13 0.05 29 1005.5
20200606164003 28 192 9.7 14.5 0.00 0.13 0.05 32 1005.6
20200606163003 28 215 6.4 22.5 0.00 0.13 0.05 32 1005.6
20200606162003 28 205 3.2 12.9 0.00 0.13 0.05 30 1005.3
20200606161003 28 219 3.2 17.7 0.00 0.13 0.05 29 1005.2
20200606160003 28 221 12.9 17.7 0.00 0.13 0.05 27 1005.1
20200606155003 29 219 12.9 24.1 0.00 0.13 0.05 24 1005.3
20200606154004 30 228 12.9 24.1 0.00 0.13 0.05 23 1005.1
20200606153003 30 228 14.5 27.4 0.00 0.13 0.05 24 1005.0
20200606152003 31 220 16.1 30.6 0.00 0.13 0.05 24 1005.0
20200606151003 31 208 25.7 30.6 0.00 0.13 0.05 24 1005.0
20200606150003 32 212 19.3 25.7 0.00 0.13 0.05 22 1004.8
20200606145003 32 173 12.9 17.7 0.00 0.13 0.05 23 1004.8
20200606144004 32 215 12.9 17.7 0.00 0.13 0.05 23 1005.0
20200606143004 31 203 11.3 19.3 0.00 0.13 0.05 24 1004.9
20200606142006 31 213 8.0 14.5 0.00 0.13 0.05 26 1005.1
20200606141004 30 344 9.7 14.5 0.00 0.13 0.05 25 1005.1
20200606140004 30 261 4.8 19.3 0.00 0.13 0.05 26 1005.1
20200606135004 31 220 4.8 16.1 0.00 0.13 0.05 27 1005.2
20200606134004 30 192 6.4 14.5 0.00 0.13 0.05 28 1005.6
20200606133004 29 200 6.4 22.5 0.00 0.13 0.05 30 1005.2
20200606132004 28 227 9.7 22.5 0.00 0.13 0.05 31 1005.4
20200606131004 28 208 6.4 20.9 0.00 0.13 0.05 32 1005.3
20200606130004 28 200 9.7 20.9 0.00 0.13 0.05 31 1005.5
20200606125004 28 217 6.4 17.7 0.00 0.13 0.05 32 1005.6
20200606124004 28 232 11.3 22.5 0.00 0.13 0.05 32 1005.6
20200606123004 28 210 6.4 22.5 0.00 0.13 0.05 32 1005.7
20200606122004 28 234 17.7 22.5 0.00 0.13 0.05 32 1005.5
20200606121004 27 292 14.5 19.3 0.00 0.13 0.05 32 1005.8
20200606120003 27 239 8.0 24.1 0.00 0.13 0.05 32 1006.0
20200606115003 27 223 3.2 33.8 0.00 0.13 0.05 31 1006.0
20200606114003 27 239 14.5 27.4 0.00 0.13 0.05 31 1006.2
20200606113003 27 242 6.4 30.6 0.00 0.13 0.05 30 1006.2
20200606112003 27 188 4.8 12.9 0.00 0.13 0.05 31 1006.2
20200606111003 27 232 6.4 29.0 0.00 0.13 0.05 30 1006.0
20200606110003 27 265 11.3 29.0 0.00 0.13 0.05 30 1006.1
20200606105003 26 210 8.0 22.5 0.00 0.13 0.05 31 1006.1
20200606104003 26 161 6.4 20.9 0.00 0.13 0.05 30 1006.2
20200606103004 26 195 11.3 25.7 0.00 0.13 0.05 31 1006.2
20200606102011 26 215 12.9 20.9 0.00 0.13 0.05 32 1006.3
20200606101004 26 222 8.0 17.7 0.00 0.13 0.05 32 1005.8
20200606100012 26 223 9.7 20.9 0.00 0.13 0.05 32 1006.0
20200606095004 26 206 6.4 22.5 0.00 0.13 0.05 32 1006.1
20200606094004 25 233 4.8 22.5 0.00 0.13 0.05 34 1006.1
20200606093004 25 225 8.0 17.7 0.00 0.13 0.05 34 1006.1
20200606092003 25 189 9.7 20.9 0.00 0.13 0.05 34 1006.0
20200606091003 25 245 9.7 24.1 0.00 0.13 0.05 34 1006.1
20200606090003 25 230 4.8 19.3 0.00 0.13 0.05 34 1005.8
20200606085003 25 202 3.2 19.3 0.00 0.13 0.05 35 1006.1
20200606084003 25 333 12.9 17.7 0.00 0.13 0.05 36 1006.0
20200606083003 25 281 3.2 24.1 0.00 0.13 0.05 35 1006.0
20200606082003 25 217 6.4 17.7 0.00 0.13 0.05 36 1006.0
20200606081003 24 2 3.2 22.5 0.00 0.13 0.05 39 1005.9
20200606080004 24 269 9.7 24.1 0.00 0.13 0.05 38 1006.1
20200606075003 24 226 9.7 22.5 0.00 0.13 0.05 38 1005.8
20200606074003 24 255 17.7 25.7 0.00 0.13 0.05 37 1006.0
20200606073003 24 210 11.3 27.4 0.00 0.13 0.05 39 1005.8
20200606072003 24 246 17.7 27.4 0.00 0.13 0.05 40 1005.6
20200606071003 24 259 11.3 25.7 0.00 0.13 0.05 41 1005.5
20200606070004 24 220 9.7 22.5 0.00 0.13 0.05 42 1005.5
20200606065004 24 222 11.3 20.9 0.00 0.13 0.05 41 1005.5
20200606064004 24 219 4.8 17.7 0.00 0.13 0.05 43 1005.6
20200606063003 23 250 6.4 17.7 0.00 0.13 0.05 43 1005.5
20200606062003 23 219 11.3 17.7 0.00 0.13 0.05 47 1005.6
20200606061003 23 30 3.2 8.0 0.00 0.13 0.05 48 1005.3
20200606060003 23 203 1.6 17.7 0.00 0.13 0.05 52 1005.4
20200606055003 22 242 6.4 19.3 0.00 0.13 0.05 53 1005.4
20200606054003 22 212 16.1 19.3 0.00 0.13 0.05 53 1005.5
20200606053003 21 238 6.4 20.9 0.00 0.13 0.05 56 1005.5
20200606052004 21 225 12.9 17.7 0.00 0.13 0.05 57 1005.0
20200605213004 16 289 4.8 11.3 0.00 0.05 0.05 82 1000.7
20200605212004 16 261 0.0 12.9 0.00 0.05 0.05 82 1000.4
20200605211004 16 317 1.6 12.9 0.00 0.05 0.05 82 1000.3
20200605210003 16 304 3.2 12.9 0.00 0.05 0.05 81 1000.3
20200605205004 16 257 1.6 9.7 0.00 0.05 0.05 81 1000.3
20200605204004 17 298 1.6 8.0 0.00 0.05 0.05 80 1000.1
20200605203004 17 357 1.6 6.4 0.00 0.05 0.05 79 999.9
20200605202004 17 250 1.6 9.7 0.03 0.05 0.05 79 999.8
20200605201004 17 225 0.0 3.2 0.03 0.05 0.05 79 999.8
20200605200004 17 219 0.0 3.2 0.05 0.05 0.05 78 1000.0
20200605195004 17 328 0.0 3.2 0.05 0.05 0.05 77 1000.0
20200605194004 17 233 0.0 6.4 0.05 0.05 0.05 76 999.9
20200605193005 17 247 0.0 6.4 0.05 0.05 0.05 74 999.8
20200605192004 18 287 0.0 6.4 0.03 0.03 0.03 73 1000.0
20200605191004 18 349 1.6 11.3 0.00 0.00 0.00 70 999.7
20200605190004 19 280 3.2 11.3 0.00 0.00 0.00 66 999.5
20200605185003 19 232 1.6 17.7 0.00 0.00 0.00 63 999.0
20200605184004 20 228 8.0 17.7 0.00 0.00 0.00 63 998.8
20200605183003 20 232 12.9 17.7 0.00 0.00 0.00 61 998.6
20200605182003 20 222 12.9 17.7 0.00 0.00 0.00 60 998.3
20200605181004 20 198 4.8 11.3 0.00 0.00 0.00 60 998.1